Hlavní strana
METAR-TAF:

METAR-TAF

Letiště :

Yap, Mikronésie

zeměpisná šířka: 09-29N, zeměpisná délka: 138-05E, výška: 28 m

Aktuální stav počasí

Zpráva byla vytvořena před 1 hodinou a 6 minutami, v 21:51 UTC
vítr z různých směrů 3 kt
Teplota 29°C
Vlhkost vzduchu 84%
Tlak 1012 hPa
Viditelnost: 19.3 km
Skoro jasno ve výšce 1600 ft
Oblačno až skoro zataženo ve výšce 13000 ft
Oblačno až skoro zataženo ve výšce 30000 ft

METAR: PTYA 182151Z VRB03KT 12SM FEW016 BKN130 BKN300 29/26 A2989 RMK SLP122 T02910259

Čas: 08:57 (22:57 UTC)

Předpověď počasí

Zpráva byla vytvořena před 5 hodinami a 23 minutami, v 17:34 UTC
Předpověď platná od 18 v 18 UTC do 19 v 18 UTC
vítr z různých směrů 5 kt
Viditelnost: 10 km
Skoro jasno ve výšce 1600 ft
Polojasno ve výšce 13000 ft
přeháňky v blízkosti

TAF: PTYA 181734Z 1818/1918 VRB05KT P6SM VCSH FEW016 SCT130

Stav a předpovědi počasí z více než 4 000 letišť (zprávy METAR a TAF).

Červené a žluté tečky na mapě představují dostupné meteorologické stanice.

Když kurzor umístíte na tečku, zobrazí se název stanice.

Pak kliknutím zobrazíte stav a předpověď počasí.

Chcete-li změnit mapu, kliknutím na zelené tlačítko se znaménkem +mapu přiblížíte, kliknutím na zelené tlačítko se znaménkem – mapu oddálíte a kliknutím na zelené šipky přejdete na sousední mapy.


METAR-TAF: